sensor_id;sensor_type;location;lat;lon;timestamp;pressure;altitude;pressure_sealevel;temperature;humidity
4528;BME280;62320;51.520;6.818;2023-08-31T00:07:28;100381.88;;;13.30;100.00
4528;BME280;62320;51.520;6.818;2023-08-31T00:17:29;100374.88;;;13.35;99.36
4528;BME280;62320;51.520;6.818;2023-08-31T00:27:31;100373.53;;;13.11;100.00
4528;BME280;62320;51.520;6.818;2023-08-31T00:37:32;100372.63;;;13.14;100.00
4528;BME280;62320;51.520;6.818;2023-08-31T00:47:35;100379.69;;;13.06;100.00
4528;BME280;62320;51.520;6.818;2023-08-31T00:57:37;100383.06;;;13.12;100.00
4528;BME280;62320;51.520;6.818;2023-08-31T01:07:59;100392.53;;;13.13;99.83
4528;BME280;62320;51.520;6.818;2023-08-31T01:18:05;100379.84;;;12.94;100.00
4528;BME280;62320;51.520;6.818;2023-08-31T01:28:09;100386.06;;;12.83;100.00
4528;BME280;62320;51.520;6.818;2023-08-31T01:38:15;100385.22;;;12.83;99.60
4528;BME280;62320;51.520;6.818;2023-08-31T01:48:19;100401.84;;;12.68;100.00
4528;BME280;62320;51.520;6.818;2023-08-31T01:58:20;100403.78;;;12.56;99.98
4528;BME280;62320;51.520;6.818;2023-08-31T02:08:23;100407.25;;;12.55;99.32
4528;BME280;62320;51.520;6.818;2023-08-31T02:18:25;100410.00;;;12.44;100.00
4528;BME280;62320;51.520;6.818;2023-08-31T02:28:26;100410.09;;;12.35;100.00
4528;BME280;62320;51.520;6.818;2023-08-31T02:38:28;100408.22;;;12.46;99.19
4528;BME280;62320;51.520;6.818;2023-08-31T02:48:32;100412.69;;;12.34;99.16
4528;BME280;62320;51.520;6.818;2023-08-31T02:58:34;100422.41;;;12.20;100.00
4528;BME280;62320;51.520;6.818;2023-08-31T03:08:38;100412.00;;;12.21;100.00
4528;BME280;62320;51.520;6.818;2023-08-31T03:18:40;100413.00;;;12.09;100.00
4528;BME280;62320;51.520;6.818;2023-08-31T03:28:41;100413.00;;;12.09;99.69
4528;BME280;62320;51.520;6.818;2023-08-31T03:38:43;100410.59;;;11.96;100.00
4528;BME280;62320;51.520;6.818;2023-08-31T03:48:45;100406.22;;;11.98;100.00
4528;BME280;62320;51.520;6.818;2023-08-31T03:58:46;100407.97;;;11.97;100.00
4528;BME280;62320;51.520;6.818;2023-08-31T04:08:48;100405.53;;;11.85;100.00
4528;BME280;62320;51.520;6.818;2023-08-31T04:18:49;100423.72;;;11.79;100.00
4528;BME280;62320;51.520;6.818;2023-08-31T04:28:52;100428.00;;;11.83;100.00
4528;BME280;62320;51.520;6.818;2023-08-31T04:38:54;100422.75;;;11.89;100.00
4528;BME280;62320;51.520;6.818;2023-08-31T04:48:55;100443.56;;;11.80;100.00
4528;BME280;62320;51.520;6.818;2023-08-31T04:58:57;100457.44;;;11.75;100.00
4528;BME280;62320;51.520;6.818;2023-08-31T05:08:59;100471.25;;;11.75;100.00
4528;BME280;62320;51.520;6.818;2023-08-31T05:19:01;100478.97;;;11.80;100.00
4528;BME280;62320;51.520;6.818;2023-08-31T05:29:04;100480.59;;;11.88;100.00
4528;BME280;62320;51.520;6.818;2023-08-31T05:39:06;100491.75;;;11.98;100.00
4528;BME280;62320;51.520;6.818;2023-08-31T05:49:07;100509.78;;;12.07;100.00
4528;BME280;62320;51.520;6.818;2023-08-31T05:59:09;100498.44;;;12.18;100.00
4528;BME280;62320;51.520;6.818;2023-08-31T06:09:10;100514.81;;;12.24;100.00
4528;BME280;62320;51.520;6.818;2023-08-31T06:19:12;100521.59;;;12.35;100.00
4528;BME280;62320;51.520;6.818;2023-08-31T06:29:16;100531.81;;;12.49;100.00
4528;BME280;62320;51.520;6.818;2023-08-31T06:39:18;100538.44;;;12.74;100.00
4528;BME280;62320;51.520;6.818;2023-08-31T06:49:19;100535.41;;;13.07;100.00
4528;BME280;62320;51.520;6.818;2023-08-31T06:59:20;100538.19;;;13.53;100.00
4528;BME280;62320;51.520;6.818;2023-08-31T07:09:22;100542.59;;;14.00;100.00
4528;BME280;62320;51.520;6.818;2023-08-31T07:19:23;100547.47;;;14.18;100.00
4528;BME280;62320;51.520;6.818;2023-08-31T07:29:25;100558.59;;;14.24;99.76
4528;BME280;62320;51.520;6.818;2023-08-31T07:39:26;100556.19;;;14.61;100.00
4528;BME280;62320;51.520;6.818;2023-08-31T07:49:28;100552.84;;;14.97;100.00
4528;BME280;62320;51.520;6.818;2023-08-31T07:59:30;100555.16;;;15.49;99.30
4528;BME280;62320;51.520;6.818;2023-08-31T08:09:31;100577.53;;;15.95;97.58
4528;BME280;62320;51.520;6.818;2023-08-31T08:19:33;100588.91;;;16.60;97.86
4528;BME280;62320;51.520;6.818;2023-08-31T08:29:34;100589.88;;;16.86;96.14
4528;BME280;62320;51.520;6.818;2023-08-31T08:39:36;100590.16;;;17.06;94.41
4528;BME280;62320;51.520;6.818;2023-08-31T08:49:38;100601.59;;;17.32;94.34
4528;BME280;62320;51.520;6.818;2023-08-31T08:59:39;100598.31;;;17.54;93.24
4528;BME280;62320;51.520;6.818;2023-08-31T09:09:52;100606.66;;;17.67;92.15
4528;BME280;62320;51.520;6.818;2023-08-31T09:20:00;100614.56;;;17.64;91.15
4528;BME280;62320;51.520;6.818;2023-08-31T09:30:02;100614.94;;;17.79;90.81
4528;BME280;62320;51.520;6.818;2023-08-31T09:40:05;100612.38;;;17.78;89.30
4528;BME280;62320;51.520;6.818;2023-08-31T09:50:07;100615.88;;;17.78;88.65
4528;BME280;62320;51.520;6.818;2023-08-31T10:00:09;100612.41;;;17.76;85.74
4528;BME280;62320;51.520;6.818;2023-08-31T10:10:11;100623.03;;;17.72;84.57
4528;BME280;62320;51.520;6.818;2023-08-31T10:20:16;100621.13;;;17.77;84.20
4528;BME280;62320;51.520;6.818;2023-08-31T10:40:23;100625.81;;;17.94;82.16
4528;BME280;62320;51.520;6.818;2023-08-31T10:50:25;100621.34;;;17.97;83.30
4528;BME280;62320;51.520;6.818;2023-08-31T11:00:46;100615.47;;;18.17;81.11
4528;BME280;62320;51.520;6.818;2023-08-31T11:10:48;100606.59;;;18.21;81.39
4528;BME280;62320;51.520;6.818;2023-08-31T11:20:49;100598.59;;;18.25;80.52
4528;BME280;62320;51.520;6.818;2023-08-31T11:30:51;100597.25;;;18.38;80.78
4528;BME280;62320;51.520;6.818;2023-08-31T11:40:56;100595.84;;;18.55;80.71
4528;BME280;62320;51.520;6.818;2023-08-31T11:50:58;100585.28;;;18.58;79.51
4528;BME280;62320;51.520;6.818;2023-08-31T12:01:00;100569.41;;;18.62;79.36
4528;BME280;62320;51.520;6.818;2023-08-31T12:11:01;100585.31;;;18.56;75.31
4528;BME280;62320;51.520;6.818;2023-08-31T12:21:03;100579.88;;;18.62;76.65
4528;BME280;62320;51.520;6.818;2023-08-31T12:31:05;100582.16;;;18.71;76.61
4528;BME280;62320;51.520;6.818;2023-08-31T12:41:07;100590.66;;;18.78;79.07
4528;BME280;62320;51.520;6.818;2023-08-31T12:51:09;100579.72;;;18.90;78.45
4528;BME280;62320;51.520;6.818;2023-08-31T13:01:11;100600.03;;;19.06;77.25
4528;BME280;62320;51.520;6.818;2023-08-31T13:11:12;100596.34;;;19.12;76.93
4528;BME280;62320;51.520;6.818;2023-08-31T13:21:14;100591.81;;;19.17;76.77
4528;BME280;62320;51.520;6.818;2023-08-31T13:31:15;100590.41;;;19.30;75.47
4528;BME280;62320;51.520;6.818;2023-08-31T13:41:17;100585.75;;;19.38;76.32
4528;BME280;62320;51.520;6.818;2023-08-31T13:51:18;100599.00;;;19.35;76.44
4528;BME280;62320;51.520;6.818;2023-08-31T14:01:20;100620.50;;;18.97;78.51
4528;BME280;62320;51.520;6.818;2023-08-31T14:11:22;100675.88;;;18.35;85.66
4528;BME280;62320;51.520;6.818;2023-08-31T14:21:23;100704.09;;;17.72;89.22
4528;BME280;62320;51.520;6.818;2023-08-31T14:31:25;100677.38;;;17.32;91.58
4528;BME280;62320;51.520;6.818;2023-08-31T14:41:26;100672.13;;;16.72;98.96
4528;BME280;62320;51.520;6.818;2023-08-31T14:51:28;100670.28;;;16.75;98.01
4528;BME280;62320;51.520;6.818;2023-08-31T15:01:29;100681.66;;;16.73;97.21
4528;BME280;62320;51.520;6.818;2023-08-31T15:11:31;100666.94;;;16.70;98.28
4528;BME280;62320;51.520;6.818;2023-08-31T15:21:33;100678.66;;;16.54;99.82
4528;BME280;62320;51.520;6.818;2023-08-31T15:31:35;100695.81;;;16.64;96.71
4528;BME280;62320;51.520;6.818;2023-08-31T15:41:37;100686.38;;;16.59;96.37
4528;BME280;62320;51.520;6.818;2023-08-31T15:51:38;100698.06;;;16.44;96.51
4528;BME280;62320;51.520;6.818;2023-08-31T16:01:39;100699.78;;;16.43;99.32
4528;BME280;62320;51.520;6.818;2023-08-31T16:11:42;100686.38;;;16.59;98.55
4528;BME280;62320;51.520;6.818;2023-08-31T16:21:43;100672.94;;;16.74;97.19
4528;BME280;62320;51.520;6.818;2023-08-31T16:31:44;100683.13;;;16.83;97.93
4528;BME280;62320;51.520;6.818;2023-08-31T16:41:46;100686.44;;;16.89;100.00
4528;BME280;62320;51.520;6.818;2023-08-31T16:51:52;100689.78;;;16.94;100.00
4528;BME280;62320;51.520;6.818;2023-08-31T17:01:53;100702.91;;;16.91;99.62
4528;BME280;62320;51.520;6.818;2023-08-31T17:11:55;100705.53;;;16.91;100.00
4528;BME280;62320;51.520;6.818;2023-08-31T17:21:56;100710.75;;;16.91;100.00
4528;BME280;62320;51.520;6.818;2023-08-31T17:31:58;100720.28;;;16.92;100.00
4528;BME280;62320;51.520;6.818;2023-08-31T17:41:59;100714.25;;;16.90;98.64
4528;BME280;62320;51.520;6.818;2023-08-31T17:52:01;100717.91;;;16.85;100.00
4528;BME280;62320;51.520;6.818;2023-08-31T18:02:02;100715.41;;;16.80;100.00
4528;BME280;62320;51.520;6.818;2023-08-31T18:12:05;100731.16;;;16.77;100.00
4528;BME280;62320;51.520;6.818;2023-08-31T18:22:07;100731.22;;;16.74;100.00
4528;BME280;62320;51.520;6.818;2023-08-31T18:32:08;100741.13;;;16.62;100.00
4528;BME280;62320;51.520;6.818;2023-08-31T18:42:10;100742.38;;;16.46;100.00
4528;BME280;62320;51.520;6.818;2023-08-31T18:52:11;100738.31;;;16.34;100.00
4528;BME280;62320;51.520;6.818;2023-08-31T19:02:13;100735.13;;;16.21;100.00
4528;BME280;62320;51.520;6.818;2023-08-31T19:12:15;100749.22;;;16.14;100.00
4528;BME280;62320;51.520;6.818;2023-08-31T19:22:16;100752.97;;;16.03;98.08
4528;BME280;62320;51.520;6.818;2023-08-31T19:32:19;100766.25;;;15.92;99.46
4528;BME280;62320;51.520;6.818;2023-08-31T19:42:21;100761.22;;;15.83;94.91
4528;BME280;62320;51.520;6.818;2023-08-31T19:52:22;100772.88;;;15.65;96.24
4528;BME280;62320;51.520;6.818;2023-08-31T20:02:24;100766.41;;;15.40;100.00
4528;BME280;62320;51.520;6.818;2023-08-31T20:12:25;100783.28;;;15.21;100.00
4528;BME280;62320;51.520;6.818;2023-08-31T20:22:26;100791.50;;;15.00;100.00
4528;BME280;62320;51.520;6.818;2023-08-31T20:32:28;100789.94;;;14.90;100.00
4528;BME280;62320;51.520;6.818;2023-08-31T20:42:30;100790.09;;;14.79;100.00
4528;BME280;62320;51.520;6.818;2023-08-31T20:52:31;100798.19;;;14.64;100.00
4528;BME280;62320;51.520;6.818;2023-08-31T21:02:34;100792.31;;;14.50;100.00
4528;BME280;62320;51.520;6.818;2023-08-31T21:12:36;100795.03;;;14.44;100.00
4528;BME280;62320;51.520;6.818;2023-08-31T21:22:37;100800.38;;;14.35;100.00
4528;BME280;62320;51.520;6.818;2023-08-31T21:32:39;100783.31;;;14.13;100.00
4528;BME280;62320;51.520;6.818;2023-08-31T21:42:40;100796.25;;;14.17;99.71
4528;BME280;62320;51.520;6.818;2023-08-31T21:52:42;100792.09;;;14.04;100.00
4528;BME280;62320;51.520;6.818;2023-08-31T22:02:45;100795.72;;;13.93;100.00
4528;BME280;62320;51.520;6.818;2023-08-31T22:12:47;100806.97;;;13.95;100.00
4528;BME280;62320;51.520;6.818;2023-08-31T22:22:52;100794.88;;;13.91;98.85
4528;BME280;62320;51.520;6.818;2023-08-31T22:32:55;100806.34;;;13.76;100.00
4528;BME280;62320;51.520;6.818;2023-08-31T22:42:57;100791.75;;;13.66;100.00
4528;BME280;62320;51.520;6.818;2023-08-31T22:52:58;100804.75;;;13.65;100.00
4528;BME280;62320;51.520;6.818;2023-08-31T23:03:01;100804.97;;;13.45;100.00
4528;BME280;62320;51.520;6.818;2023-08-31T23:13:03;100804.94;;;13.48;99.06
4528;BME280;62320;51.520;6.818;2023-08-31T23:23:05;100794.69;;;13.37;100.00
4528;BME280;62320;51.520;6.818;2023-08-31T23:33:06;100784.13;;;13.51;96.09
4528;BME280;62320;51.520;6.818;2023-08-31T23:43:08;100781.91;;;13.16;100.00
4528;BME280;62320;51.520;6.818;2023-08-31T23:53:09;100774.97;;;13.18;100.00
